Details for WeGo Airways at EGLL




Go Back


Latest METAR
Local Time

EGLL 221150Z AUTO 28006KT 9999 -RA BKN038/// //////TCU 12/10 Q1020 NOSIG
22/09/2018, 12:54:19

Description
Results
WeGo Airways Logo
Number of Pilots based at EGLL
1 Pilots Based here
Number of WeGo Airways Flights Departed from EGLL
33 Flights Departed
Number of WeGo Airways Flights Arrived at EGLL
33 Flights Arrived
Number of WeGo Airways Schedules Departing from EGLL
8 Schedules
Number of WeGo Airways Schedules Arriving at EGLL
10 Schedules
Number of WeGo Airways Schedules Departing from EGLL availible today
8 Schedules Today
Number of WeGo Airways Schedules Arriving at EGLL availible today
9 Schedules Today
Average Landing Rate at EGLL
-186 fpm
WeGo Airways Average Landing Rate at EGLL
-148 fpm
Total Fuel Purchased at EGLL by WeGo Airways
967,265.38 kgs / 2,132,433.26 lbs

Pilots Based at EGLL


Pilot ID
Pilot Name
Pilot Rank
No. of Flights
No. of Flying Hours
Chris Nicholson
53
133.39
Content